Terminal Aerodrome Forecast
Issued by NWS Pittsburgh, PA

Current Version | Previous Version | Text Only | Print | Product List | Glossary Off
Versions: 1 2 3 4 5 6 7 8 9 10 11 12 13 14 15 16 17 18 19 20 21 22 23 24 25 26 27 28 29 30 31 32 33 34 35 36

007
FTUS41 KPBZ 230820 AAA
TAFPIT
TAF AMD
KPIT 230820Z 2308/2412 20005KT P6SM SCT010 OVC050
     FM230900 20008KT P6SM BKN008
     FM231500 23007KT P6SM VCSH OVC015
     FM232000 21008KT P6SM BKN025
     FM240900 15005KT P6SM BKN035=

USA.gov is the U.S. government's official web portal to all federal, state and local government web resources and services.